Monday, June 18, 2018, 8:33 PM EDT
Back to Local

KMPO, Mt Pocono Pocono Mountains

Location: Pocono Summit, PA, United States Lat: 41.133
Local Time: 8:33 PM EDT ( 0:33 GMT) Lon: -75.383
Time Zone: US/Eastern Elev: 1915 ft

Show me the last for .
Show Decoded

2018-06-18 19:53 METAR KMPO 182353Z AUTO 27006KT 10SM CLR 22/22 A2990 RMK AO2 LTG DSNT SE TSE07
                 SLP111 60046 T02220217 10306 20217 56012 =
2018-06-18 19:20 METAR KMPO 182320Z AUTO 27008KT 10SM CLR 22/22 A2990 RMK AO2 LTG DSNT SE-SW
                 TSE07 T02220217 =
2018-06-18 19:13 METAR KMPO 182313Z AUTO 27007KT 10SM VCTS CLR 22/22 A2991 RMK AO2 LTG DSNT SE-SW
                 TSE07 T02220217 =
2018-06-18 18:53 METAR KMPO 182253Z AUTO 23009KT 10SM TS FEW009 SCT026 23/21 A2992 RMK AO2 PK WND
                 30051/2232 WSHFT 2226 LTG DSNT SE-SW RAE02B19E53 TSB21 SLP120 P0046 T02280211 =
2018-06-18 18:46 METAR KMPO 182246Z AUTO 25012G23KT 9SM -TSRA FEW009 BKN023 BKN037 22/21 A2992
                 RMK AO2 PK WND 30051/2232 WSHFT 2226 LTG DSNT SE-W RAE02B19 TSB21 P0046
                 T02220211 =
2018-06-18 18:42 METAR KMPO 182242Z AUTO 24015G23KT 1SM -TSRA BR SCT011 BKN023 OVC110 22/21 A2993
                 RMK AO2 PK WND 30051/2232 WSHFT 2226 LTG DSNT SW AND W RAE02B19 TSB21 P0046
                 T02220206 =
2018-06-18 18:33 METAR KMPO 182233Z AUTO 29028G51KT 240V320 3/4SM +TSRA BR FEW017 BKN032 OVC110
                 22/20 A2993 RMK AO2 PK WND 30051/2232 LTG DSNT SW AND W RAE02B19 TSB21 PRESRR
                 P0036 T02170200 =
2018-06-18 18:27 METAR KMPO 182227Z AUTO 33019G28KT 10SM -TSRA FEW031 SCT041 BKN085 24/22 A2990
                 RMK AO2 PK WND 34028/2227 LTG DSNT SW AND W RAE02B19 TSB21 P0000 T02440217 =
2018-06-18 18:15 METAR KMPO 182215Z AUTO 24007KT 10SM VCTS FEW050 SCT090 BKN110 27/21 A2990 RMK
                 AO2 LTG DSNT ALQDS RAE02 P0000 T02720206 =
2018-06-18 17:53 METAR KMPO 182153Z AUTO 25012G16KT 10SM -RA CLR 28/20 A2991 RMK AO2 LTG DSNT W-N
                 RAB53 SLP115 P0000 T02780200 =
2018-06-18 16:53 METAR KMPO 182053Z AUTO 24008KT 10SM SCT047 SCT055 29/21 A2994 RMK AO2 SLP122
                 T02940211 56024 =
2018-06-18 15:53 METAR KMPO 181953Z AUTO 26017G22KT 10SM FEW049 30/19 A2997 RMK AO2 SLP132
                 T03000194 =
2018-06-18 14:53 METAR KMPO 181853Z AUTO 26014G21KT 10SM CLR 31/19 A2998 RMK AO2 LTG DSNT N
                 SLP137 T03060194 =
2018-06-18 13:53 METAR KMPO 181753Z AUTO 25015G20KT 10SM SCT041 30/21 A3001 RMK AO2 SLP148
                 T03000206 10300 20222 58015 =
2018-06-18 12:53 METAR KMPO 181653Z AUTO 23011G17KT 200V270 10SM FEW033 29/22 A3003 RMK AO2
                 SLP155 T02940217 =
2018-06-18 11:53 METAR KMPO 181553Z AUTO 26014G18KT 10SM FEW030 28/22 A3005 RMK AO2 SLP161
                 T02830217 =
2018-06-18 10:53 METAR KMPO 181453Z AUTO 24012KT 10SM CLR 27/21 A3006 RMK AO2 SLP164 T02720211
                 58010 =
2018-06-18 09:53 METAR KMPO 181353Z AUTO 25007KT 10SM CLR 27/21 A3007 RMK AO2 SLP167 T02670211 =
2018-06-18 08:53 METAR KMPO 181253Z AUTO 26010KT 10SM FEW048 24/19 A3009 RMK AO2 SLP173 T02440194
                 =
2018-06-18 07:53 METAR KMPO 181153Z AUTO 25007KT 10SM CLR 22/19 A3009 RMK AO2 SLP175 T02220189
                 10222 20172 56002 =
2018-06-18 06:53 METAR KMPO 181053Z AUTO 25004KT 10SM CLR 19/18 A3009 RMK AO2 SLP177 T01940183 =
2018-06-18 05:53 METAR KMPO 180953Z AUTO 27005KT 10SM CLR 17/17 A3009 RMK AO2 SLP177 T01720167 =
2018-06-18 04:53 METAR KMPO 180853Z AUTO 27005KT 10SM CLR 18/17 A3010 RMK AO2 SLP179 T01780167
                 56009 =
2018-06-18 03:53 METAR KMPO 180753Z AUTO 27006KT 10SM CLR 18/17 A3011 RMK AO2 SLP182 T01830167 =
2018-06-18 02:53 METAR KMPO 180653Z AUTO 26006KT 10SM CLR 18/17 A3011 RMK AO2 SLP182 T01830167 =
2018-06-18 01:53 METAR KMPO 180553Z AUTO 27004KT 10SM CLR 18/17 A3013 RMK AO2 SLP188 T01830167
                 10250 20183 50001 =
2018-06-18 00:53 METAR KMPO 180453Z AUTO 25005KT 10SM CLR 19/17 A3013 RMK AO2 SLP189 T01890167
                 402890100 =
2018-06-17 23:53 METAR KMPO 180353Z AUTO 00000KT 10SM CLR 19/17 A3012 RMK AO2 SLP188 T01890167 =
2018-06-17 22:53 METAR KMPO 180253Z AUTO 26004KT 10SM CLR 20/17 A3012 RMK AO2 SLP188 T02000167
                 53002 =
2018-06-17 21:53 METAR KMPO 180153Z AUTO 24004KT 10SM CLR 21/17 A3011 RMK AO2 SLP185 T02110167 =
2018-06-17 20:53 METAR KMPO 180053Z AUTO 00000KT 10SM CLR 23/17 A3011 RMK AO2 SLP182 T02330167 =

Support USWX by starting your Amazon purchase here.